Time;durP1;ratioP1;P1;durP2;ratioP2;P2;SDS_P1;SDS_P2;PMS_P1;PMS_P2;Temp;Humidity;BMP_temperature;BMP_pressure;BME280_temperature;BME280_humidity;BME280_pressure;Samples;Min_cycle;Max_cycle;Signal;HPM_P1;HPM_P2
2022/03/03 00:01:36;;;;;;;49.85;39.47;;;9.60;75.70;;;;;;5031262;28;20057;-82
2022/03/03 00:04:02;;;;;;;51.25;40.20;;;9.50;75.90;;;;;;5031794;28;20484;-82
2022/03/03 00:06:28;;;;;;;52.33;40.75;;;9.50;75.60;;;;;;5032935;28;20167;-82
2022/03/03 00:08:53;;;;;;;56.13;44.45;;;9.50;75.90;;;;;;5036691;28;20053;-81
2022/03/03 00:11:19;;;;;;;53.53;41.58;;;9.30;76.60;;;;;;5031962;28;20029;-81
2022/03/03 00:13:45;;;;;;;53.15;41.63;;;9.30;77.00;;;;;;5030953;28;20422;-82
2022/03/03 00:16:11;;;;;;;48.40;37.25;;;9.20;77.10;;;;;;5033068;28;20047;-81
2022/03/03 00:18:36;;;;;;;56.97;43.03;;;9.30;76.60;;;;;;5032869;28;20022;-82
2022/03/03 00:21:03;;;;;;;57.75;46.25;;;9.20;76.70;;;;;;5031399;28;20504;-82
2022/03/03 00:23:29;;;;;;;56.50;42.72;;;9.20;76.60;;;;;;5031962;28;20021;-82
2022/03/03 00:25:55;;;;;;;55.72;40.03;;;9.20;76.80;;;;;;5032617;28;20075;-82
2022/03/03 00:28:21;;;;;;;60.50;44.28;;;9.20;76.80;;;;;;5032814;28;20045;-82
2022/03/03 00:30:47;;;;;;;54.38;40.78;;;9.20;76.80;;;;;;5032970;28;20025;-82
2022/03/03 00:33:12;;;;;;;54.35;41.45;;;9.10;76.70;;;;;;5027506;28;20028;-83
2022/03/03 00:35:38;;;;;;;59.17;44.85;;;9.20;76.80;;;;;;5032392;28;20033;-82
2022/03/03 00:38:04;;;;;;;55.40;39.20;;;9.10;77.00;;;;;;5033034;28;20382;-82
2022/03/03 00:40:30;;;;;;;57.05;43.15;;;9.00;77.40;;;;;;5037316;28;20443;-82
2022/03/03 00:42:56;;;;;;;50.70;39.75;;;9.10;76.90;;;;;;5032364;28;20036;-82
2022/03/03 00:45:22;;;;;;;54.00;39.97;;;9.10;76.60;;;;;;5033893;28;20033;-82
2022/03/03 00:47:48;;;;;;;51.00;38.95;;;9.20;76.50;;;;;;5040335;28;21062;-82
2022/03/03 00:50:15;;;;;;;58.15;40.25;;;9.20;76.30;;;;;;5037043;28;20049;-82
2022/03/03 00:52:40;;;;;;;56.78;40.20;;;9.20;76.00;;;;;;5037148;28;20021;-82
2022/03/03 00:55:07;;;;;;;54.50;39.95;;;9.20;75.80;;;;;;5032182;28;20026;-82
2022/03/03 00:57:33;;;;;;;50.88;37.45;;;9.20;76.00;;;;;;5039549;28;20026;-82
2022/03/03 00:59:59;;;;;;;55.85;37.30;;;9.20;75.40;;;;;;5031637;28;20116;-82
2022/03/03 01:02:25;;;;;;;55.50;40.47;;;9.30;75.00;;;;;;5035089;28;20540;-83
2022/03/03 01:04:51;;;;;;;51.03;39.40;;;9.30;74.80;;;;;;5036666;28;20041;-82
2022/03/03 01:07:17;;;;;;;52.45;40.38;;;9.30;74.40;;;;;;5044609;28;20033;-83
2022/03/03 01:09:42;;;;;;;60.17;44.08;;;9.20;74.50;;;;;;5032443;28;20351;-82
2022/03/03 01:12:09;;;;;;;57.47;43.10;;;9.10;74.60;;;;;;5032422;28;20017;-82
2022/03/03 01:14:34;;;;;;;59.95;44.35;;;9.00;75.30;;;;;;5032021;28;20028;-82
2022/03/03 01:17:00;;;;;;;59.50;43.08;;;8.90;76.10;;;;;;5032355;28;20100;-82
2022/03/03 01:19:26;;;;;;;50.92;39.08;;;8.90;75.10;;;;;;5031970;28;20041;-82
2022/03/03 01:21:51;;;;;;;52.67;38.15;;;8.90;74.90;;;;;;5030773;28;20113;-83
2022/03/03 01:24:17;;;;;;;59.40;41.42;;;9.00;74.80;;;;;;5034256;28;20041;-82
2022/03/03 01:26:43;;;;;;;50.17;35.88;;;9.00;74.50;;;;;;5030938;28;20140;-82
2022/03/03 01:29:09;;;;;;;54.08;39.90;;;9.00;74.50;;;;;;5033185;28;20425;-83
2022/03/03 01:31:35;;;;;;;55.05;39.03;;;9.00;74.00;;;;;;5031186;28;20465;-82
2022/03/03 01:34:01;;;;;;;52.13;40.63;;;9.00;74.10;;;;;;5032471;28;20052;-83
2022/03/03 01:36:26;;;;;;;54.60;43.30;;;8.90;74.60;;;;;;5032025;28;20025;-83
2022/03/03 01:38:52;;;;;;;49.53;38.15;;;8.90;74.70;;;;;;5033441;28;20415;-84
2022/03/03 01:41:18;;;;;;;56.85;42.67;;;8.90;74.70;;;;;;5036552;28;20033;-85
2022/03/03 01:43:44;;;;;;;58.22;44.65;;;8.90;74.80;;;;;;5032967;28;20030;-84
2022/03/03 01:46:09;;;;;;;59.47;45.47;;;8.80;74.30;;;;;;5033000;28;20032;-84
2022/03/03 01:48:35;;;;;;;51.53;39.85;;;8.90;74.50;;;;;;5032251;28;20486;-85
2022/03/03 01:51:01;;;;;;;60.28;45.20;;;8.80;75.00;;;;;;5036805;28;20060;-86
2022/03/03 01:53:27;;;;;;;58.10;42.20;;;8.80;75.40;;;;;;5048465;28;20022;-85
2022/03/03 01:55:54;;;;;;;55.03;41.90;;;8.60;75.20;;;;;;5031335;28;20022;-85
2022/03/03 01:58:20;;;;;;;59.45;42.10;;;8.70;75.00;;;;;;5032790;28;20033;-85
2022/03/03 02:00:45;;;;;;;55.17;40.60;;;8.70;75.50;;;;;;5034483;28;20037;-85
2022/03/03 02:03:11;;;;;;;56.58;41.05;;;8.70;75.10;;;;;;5057472;28;20536;-85
2022/03/03 02:05:37;;;;;;;56.08;40.78;;;8.70;75.30;;;;;;5035157;28;20033;-84
2022/03/03 02:08:03;;;;;;;57.47;42.08;;;8.80;74.80;;;;;;5034370;28;20401;-83
2022/03/03 02:10:31;;;;;;;56.03;41.97;;;8.80;74.60;;;;;;5047726;28;20033;-84
2022/03/03 02:12:57;;;;;;;60.97;44.60;;;8.80;74.30;;;;;;5042793;28;20028;-83
2022/03/03 02:15:23;;;;;;;53.92;40.33;;;8.80;74.20;;;;;;5039527;28;20477;-85
2022/03/03 02:17:49;;;;;;;56.83;41.88;;;8.80;74.40;;;;;;5035813;28;20034;-83
2022/03/03 02:20:23;;;;;;;57.13;40.97;;;8.80;74.40;;;;;;5034176;28;20029;-83
2022/03/03 02:22:51;;;;;;;54.90;40.80;;;8.70;74.70;;;;;;5040746;28;20038;-83
2022/03/03 02:25:17;;;;;;;59.30;41.22;;;8.70;74.80;;;;;;5032885;28;20033;-83
2022/03/03 02:27:44;;;;;;;58.90;43.83;;;8.70;74.70;;;;;;5034863;28;20048;-83
2022/03/03 02:30:11;;;;;;;53.78;40.70;;;8.70;75.20;;;;;;5037397;28;20131;-83
2022/03/03 02:32:38;;;;;;;54.95;42.92;;;8.70;74.80;;;;;;5035688;28;20036;-84
2022/03/03 02:35:04;;;;;;;57.25;42.75;;;8.70;75.10;;;;;;5034293;28;20022;-83
2022/03/03 02:37:38;;;;;;;55.10;42.13;;;8.70;75.10;;;;;;5035071;28;20505;-84
2022/03/03 02:40:06;;;;;;;57.50;42.05;;;8.70;75.30;;;;;;5046785;28;20021;-84
2022/03/03 02:42:32;;;;;;;57.47;42.30;;;8.70;75.50;;;;;;5050186;28;20038;-83
2022/03/03 02:45:02;;;;;;;54.08;41.40;;;8.60;75.90;;;;;;5035201;28;20103;-84
2022/03/03 02:47:28;;;;;;;55.40;41.08;;;8.60;76.10;;;;;;5040041;28;20037;-85
2022/03/03 02:49:54;;;;;;;63.30;44.67;;;8.60;76.50;;;;;;5037731;28;20064;-84
2022/03/03 02:52:20;;;;;;;58.60;41.90;;;8.60;77.30;;;;;;5034159;28;20508;-84
2022/03/03 02:54:46;;;;;;;56.83;42.35;;;8.70;77.50;;;;;;5033672;28;20101;-85
2022/03/03 02:59:56;;;;;;;53.83;41.15;;;8.60;78.00;;;;;;5038466;28;20041;-84
2022/03/03 03:02:22;;;;;;;60.17;45.45;;;8.60;78.20;;;;;;5033578;28;20026;-84
2022/03/03 03:04:48;;;;;;;57.90;42.55;;;8.70;78.70;;;;;;5038420;28;20777;-82
2022/03/03 03:07:14;;;;;;;58.25;43.28;;;8.70;79.00;;;;;;5039925;28;20444;-82
2022/03/03 03:09:40;;;;;;;60.65;46.05;;;8.70;79.10;;;;;;5038059;28;20059;-82
2022/03/03 03:12:06;;;;;;;56.85;43.47;;;8.60;79.50;;;;;;5039308;28;20022;-82
2022/03/03 03:14:31;;;;;;;57.22;43.40;;;8.60;79.50;;;;;;5040400;28;20469;-82
2022/03/03 03:16:57;;;;;;;61.22;43.92;;;8.60;79.80;;;;;;5032404;28;20030;-82
2022/03/03 03:19:23;;;;;;;60.30;44.22;;;8.60;79.60;;;;;;5033510;28;20496;-82
2022/03/03 03:21:48;;;;;;;61.25;43.40;;;8.60;79.70;;;;;;5034499;28;20060;-82
2022/03/03 03:24:15;;;;;;;68.75;46.10;;;8.60;80.20;;;;;;5034345;28;20539;-82
2022/03/03 03:26:41;;;;;;;63.70;46.00;;;8.60;80.40;;;;;;5039961;28;20056;-83
2022/03/03 03:29:06;;;;;;;62.55;47.20;;;8.60;80.50;;;;;;5045032;28;20033;-82
2022/03/03 03:31:32;;;;;;;62.30;47.80;;;8.60;80.60;;;;;;5036477;28;20031;-83
2022/03/03 03:33:58;;;;;;;67.95;52.10;;;8.60;80.60;;;;;;5037387;28;20469;-81
2022/03/03 03:36:23;;;;;;;62.10;46.63;;;8.60;80.60;;;;;;5034922;28;20425;-82
2022/03/03 03:38:49;;;;;;;66.97;51.33;;;8.60;80.70;;;;;;5031804;28;20034;-82
2022/03/03 03:41:15;;;;;;;58.47;46.63;;;8.50;81.30;;;;;;5032612;28;20116;-84
2022/03/03 03:43:41;;;;;;;62.13;46.58;;;8.50;81.20;;;;;;5033293;28;20485;-83
2022/03/03 03:46:06;;;;;;;65.50;47.20;;;8.60;81.10;;;;;;5033631;28;20378;-84
2022/03/03 03:48:32;;;;;;;65.55;47.00;;;8.50;81.10;;;;;;5033482;28;20505;-83
2022/03/03 03:50:58;;;;;;;62.30;48.60;;;8.60;81.10;;;;;;5032611;28;20034;-84
2022/03/03 03:53:24;;;;;;;76.55;54.42;;;8.50;81.20;;;;;;5031783;28;20424;-84
2022/03/03 03:55:50;;;;;;;62.50;47.70;;;8.50;81.70;;;;;;5032959;28;20022;-84
2022/03/03 03:58:16;;;;;;;65.18;46.58;;;8.50;81.20;;;;;;5032176;28;20034;-85
2022/03/03 04:00:42;;;;;;;63.78;47.55;;;8.50;81.30;;;;;;5031828;28;20022;-84
2022/03/03 04:03:08;;;;;;;64.22;45.65;;;8.40;81.10;;;;;;5033244;28;20067;-83
2022/03/03 04:05:35;;;;;;;69.60;51.25;;;8.50;81.10;;;;;;5033795;28;20100;-82
2022/03/03 04:08:01;;;;;;;62.92;47.35;;;8.40;80.70;;;;;;5032595;28;20029;-82
2022/03/03 04:10:28;;;;;;;64.55;48.35;;;8.40;81.10;;;;;;5033157;28;20372;-81
2022/03/03 04:12:54;;;;;;;58.75;44.60;;;8.30;81.20;;;;;;5037027;28;20039;-82
2022/03/03 04:15:20;;;;;;;60.97;44.88;;;8.40;80.80;;;;;;5036750;28;20029;-82
2022/03/03 04:17:46;;;;;;;58.65;44.33;;;8.40;80.10;;;;;;5034939;28;20026;-82
2022/03/03 04:20:12;;;;;;;57.30;43.75;;;8.30;80.00;;;;;;5038081;28;20801;-83
2022/03/03 04:22:39;;;;;;;69.82;52.92;;;8.40;80.60;;;;;;5031855;28;20040;-83
2022/03/03 04:25:05;;;;;;;59.35;45.17;;;8.20;80.30;;;;;;5033917;28;20033;-82
2022/03/03 04:27:30;;;;;;;60.60;44.47;;;8.10;80.20;;;;;;5032702;28;20104;-81
2022/03/03 04:29:56;;;;;;;68.18;48.28;;;8.20;80.10;;;;;;5031109;28;20481;-82
2022/03/03 04:32:22;;;;;;;63.30;44.40;;;8.00;80.00;;;;;;5037137;28;20056;-82
2022/03/03 04:34:47;;;;;;;62.40;45.95;;;7.90;80.10;;;;;;5036781;28;20076;-81
2022/03/03 04:37:13;;;;;;;62.05;44.72;;;7.80;80.20;;;;;;5039580;28;20545;-83
2022/03/03 04:39:39;;;;;;;63.05;47.38;;;7.70;80.30;;;;;;5036714;28;20100;-82
2022/03/03 04:42:05;;;;;;;68.90;48.28;;;7.60;80.20;;;;;;5030508;28;20104;-84
2022/03/03 04:44:31;;;;;;;66.05;50.45;;;7.30;80.80;;;;;;5032026;28;20099;-84
2022/03/03 04:46:56;;;;;;;68.82;48.13;;;7.20;81.20;;;;;;5032650;28;20183;-83
2022/03/03 04:49:22;;;;;;;62.25;44.55;;;6.90;82.40;;;;;;5039763;28;20045;-83
2022/03/03 04:51:49;;;;;;;59.75;41.58;;;6.80;82.80;;;;;;5032148;28;20422;-83
2022/03/03 04:54:18;;;;;;;60.33;43.80;;;7.00;82.20;;;;;;5030931;28;20088;-82
2022/03/03 04:56:44;;;;;;;59.58;41.97;;;7.10;81.70;;;;;;5036571;28;20033;-82
2022/03/03 04:59:10;;;;;;;62.45;44.60;;;7.10;81.60;;;;;;5040536;28;20025;-84
2022/03/03 05:01:36;;;;;;;61.80;43.72;;;7.20;81.10;;;;;;5030991;28;20029;-83
2022/03/03 05:04:02;;;;;;;58.95;43.05;;;7.20;80.50;;;;;;5033721;28;20482;-83
2022/03/03 05:06:27;;;;;;;62.22;41.45;;;7.10;79.90;;;;;;5033807;28;20037;-83
2022/03/03 05:08:53;;;;;;;54.65;38.78;;;7.00;79.90;;;;;;5036931;28;20525;-83
2022/03/03 05:11:19;;;;;;;65.40;39.88;;;6.90;79.40;;;;;;5030862;28;20472;-82
2022/03/03 05:13:46;;;;;;;54.13;38.75;;;7.00;78.90;;;;;;5032557;28;20367;-82
2022/03/03 05:16:12;;;;;;;62.20;38.63;;;7.10;78.80;;;;;;5035292;28;20095;-82
2022/03/03 05:18:38;;;;;;;51.30;36.63;;;7.10;78.70;;;;;;5039757;28;20469;-83
2022/03/03 05:21:04;;;;;;;60.17;42.95;;;7.10;77.50;;;;;;5031127;28;20029;-82
2022/03/03 05:23:29;;;;;;;55.33;39.05;;;6.90;78.50;;;;;;5031911;28;20415;-81
2022/03/03 05:25:55;;;;;;;59.45;42.50;;;6.80;79.30;;;;;;5036472;28;20470;-81
2022/03/03 05:28:21;;;;;;;50.95;36.65;;;6.70;79.70;;;;;;5030500;28;20194;-82
2022/03/03 05:30:47;;;;;;;56.15;38.10;;;6.70;79.70;;;;;;5031992;28;20509;-81
2022/03/03 05:33:12;;;;;;;52.72;37.75;;;6.70;79.30;;;;;;5034282;28;20038;-83
2022/03/03 05:35:40;;;;;;;61.00;40.53;;;6.80;78.90;;;;;;5030508;28;20025;-84
2022/03/03 05:38:06;;;;;;;56.08;38.13;;;6.90;78.60;;;;;;5033801;28;20048;-85
2022/03/03 05:40:31;;;;;;;52.42;37.13;;;6.80;78.50;;;;;;5031083;28;20037;-83
2022/03/03 05:42:57;;;;;;;55.25;38.92;;;6.80;79.10;;;;;;5033419;28;20108;-82
2022/03/03 05:45:23;;;;;;;53.20;37.60;;;6.70;79.30;;;;;;5037921;28;20029;-84
2022/03/03 05:47:50;;;;;;;59.15;41.85;;;6.80;78.70;;;;;;5035071;28;20045;-83
2022/03/03 05:50:16;;;;;;;60.67;42.88;;;6.70;79.00;;;;;;5035194;28;20025;-84
2022/03/03 05:52:41;;;;;;;55.50;40.30;;;6.50;79.90;;;;;;5037552;28;20048;-83
2022/03/03 05:57:49;;;;;;;57.55;39.25;;;6.30;81.20;;;;;;5331474;22;20078;-93
2022/03/03 06:00:17;;;;;;;58.35;38.83;;;6.40;80.50;;;;;;5016625;28;20117;-93
2022/03/03 06:02:53;;;;;;;55.65;36.50;;;6.30;81.60;;;;;;5013368;28;20113;-94
2022/03/03 06:05:22;;;;;;;58.50;36.50;;;6.40;80.40;;;;;;5014935;28;20037;-94
2022/03/03 06:07:56;;;;;;;60.53;37.63;;;6.50;80.00;;;;;;5013366;28;20062;-95
2022/03/03 06:10:24;;;;;;;53.75;37.95;;;6.50;79.60;;;;;;5018027;28;20041;-95
2022/03/03 06:13:28;;;;;;;53.22;36.63;;;6.50;80.40;;;;;;5013213;28;20029;-94
2022/03/03 06:15:56;;;;;;;55.60;35.72;;;6.40;79.90;;;;;;5007071;28;20069;-95
2022/03/03 06:18:38;;;;;;;48.55;34.80;;;6.30;80.70;;;;;;5012055;28;20052;-95
2022/03/03 06:21:04;;;;;;;51.15;33.45;;;6.50;79.40;;;;;;5020626;28;20034;-94
2022/03/03 06:23:34;;;;;;;48.95;34.75;;;6.50;78.90;;;;;;5018151;28;20036;-96
2022/03/03 06:26:29;;;;;;;48.10;32.35;;;6.50;78.40;;;;;;5025529;28;20053;-95
2022/03/03 06:28:56;;;;;;;45.53;32.67;;;6.50;78.20;;;;;;5022835;28;20030;-95
2022/03/03 06:31:39;;;;;;;54.15;36.15;;;6.50;78.70;;;;;;5020666;28;20029;-96
2022/03/03 06:34:05;;;;;;;47.60;32.30;;;6.50;78.00;;;;;;5022425;28;20061;-95
2022/03/03 06:36:31;;;;;;;49.08;31.83;;;6.50;78.40;;;;;;5006200;28;20030;-95
2022/03/03 06:38:57;;;;;;;48.80;31.70;;;6.50;78.40;;;;;;5013837;28;20030;-96
2022/03/03 06:41:26;;;;;;;48.97;31.25;;;6.60;77.60;;;;;;5014322;28;20117;-96
2022/03/03 06:43:52;;;;;;;48.97;31.60;;;6.60;78.40;;;;;;5016818;28;20364;-96
2022/03/03 06:46:18;;;;;;;47.38;30.48;;;6.70;78.00;;;;;;5018498;28;20037;-94
2022/03/03 06:48:45;;;;;;;45.15;30.73;;;6.80;78.00;;;;;;5011901;28;20032;-96
2022/03/03 06:51:15;;;;;;;46.10;31.08;;;6.80;77.60;;;;;;5015709;28;20072;-96
2022/03/03 06:53:46;;;;;;;42.83;29.80;;;6.90;77.50;;;;;;5009378;28;20100;-96
2022/03/03 06:56:13;;;;;;;47.80;31.83;;;7.00;77.70;;;;;;5010050;28;20469;-93
2022/03/03 06:58:39;;;;;;;41.85;30.90;;;7.00;77.50;;;;;;5017265;28;20038;-92
2022/03/03 07:01:12;;;;;;;48.08;31.08;;;6.90;76.60;;;;;;5018698;28;20019;-96
2022/03/03 07:03:42;;;;;;;42.75;29.25;;;6.90;76.30;;;;;;5011691;28;20033;-95
2022/03/03 07:06:08;;;;;;;41.55;29.20;;;7.00;76.40;;;;;;5030827;28;20026;-95
2022/03/03 07:08:34;;;;;;;45.17;28.88;;;7.10;76.60;;;;;;5017229;28;20034;-96
2022/03/03 07:11:01;;;;;;;42.58;29.50;;;7.20;75.70;;;;;;5009469;28;20053;-95
2022/03/03 07:13:26;;;;;;;42.70;28.65;;;7.20;75.70;;;;;;5006481;28;20018;-96
2022/03/03 07:15:55;;;;;;;39.80;27.38;;;7.30;74.60;;;;;;5007251;28;20406;-94
2022/03/03 07:18:34;;;;;;;41.55;30.60;;;7.30;74.80;;;;;;5008611;28;20125;-94
2022/03/03 07:21:11;;;;;;;41.78;27.55;;;7.20;74.00;;;;;;5006481;28;20115;-95
2022/03/03 07:23:51;;;;;;;39.75;27.75;;;7.30;73.80;;;;;;5010837;28;20026;-94
2022/03/03 07:26:18;;;;;;;41.65;28.67;;;7.40;73.90;;;;;;5020590;28;20483;-95
2022/03/03 07:28:51;;;;;;;41.30;27.40;;;7.40;73.10;;;;;;5004129;28;20454;-95
2022/03/03 07:31:22;;;;;;;40.75;27.77;;;7.50;73.20;;;;;;5009346;28;20050;-92
2022/03/03 07:34:01;;;;;;;39.88;28.85;;;7.60;73.10;;;;;;5013853;28;20032;-93
2022/03/03 07:36:39;;;;;;;38.83;27.23;;;7.60;72.00;;;;;;5012696;28;20033;-94
2022/03/03 07:39:08;;;;;;;40.30;25.90;;;7.70;72.30;;;;;;5031221;28;20029;-94
2022/03/03 07:41:34;;;;;;;38.00;27.95;;;7.80;71.70;;;;;;5018374;28;20022;-93
2022/03/03 07:44:00;;;;;;;44.42;28.65;;;7.80;72.60;;;;;;5011710;28;20030;-95
2022/03/03 07:46:27;;;;;;;38.50;28.05;;;7.80;72.10;;;;;;5007866;28;20026;-95
2022/03/03 07:49:02;;;;;;;40.30;27.85;;;7.80;71.60;;;;;;5013631;28;20010;-93
2022/03/03 07:51:28;;;;;;;39.88;27.48;;;7.90;72.60;;;;;;5018480;28;20034;-95
2022/03/03 07:53:54;;;;;;;41.55;29.88;;;7.90;72.10;;;;;;5019471;28;20041;-94
2022/03/03 07:56:35;;;;;;;39.30;28.35;;;8.00;72.10;;;;;;5003687;28;20036;-91
2022/03/03 07:59:06;;;;;;;44.38;27.30;;;8.10;70.90;;;;;;5006759;28;20038;-94
2022/03/03 08:01:35;;;;;;;38.38;29.48;;;8.30;71.50;;;;;;4994755;28;20081;-94
2022/03/03 08:04:02;;;;;;;40.78;28.95;;;8.40;71.70;;;;;;5016452;28;20021;-94
2022/03/03 08:06:30;;;;;;;45.08;28.20;;;8.40;71.40;;;;;;5007340;28;20034;-95
2022/03/03 08:08:59;;;;;;;41.90;29.67;;;8.50;70.80;;;;;;5014201;28;20006;-93
2022/03/03 08:11:27;;;;;;;44.60;31.10;;;8.60;71.10;;;;;;5016691;28;20533;-94
2022/03/03 08:13:56;;;;;;;47.33;29.50;;;8.70;71.10;;;;;;5018395;28;20277;-93
2022/03/03 08:16:29;;;;;;;43.75;30.42;;;8.80;70.30;;;;;;5007262;28;20029;-96
2022/03/03 08:19:02;;;;;;;42.38;29.15;;;8.90;70.00;;;;;;5010746;28;20117;-93
2022/03/03 08:21:44;;;;;;;40.70;30.02;;;9.00;70.50;;;;;;5012162;28;20116;-94
2022/03/03 08:24:11;;;;;;;44.55;30.98;;;9.20;69.80;;;;;;5007957;28;20026;-91
2022/03/03 08:26:46;;;;;;;39.95;30.17;;;9.40;69.20;;;;;;5004793;28;20032;-93
2022/03/03 08:29:27;;;;;;;40.13;30.83;;;9.50;69.20;;;;;;5003478;28;20027;-91
2022/03/03 08:32:16;;;;;;;41.58;30.92;;;9.70;68.80;;;;;;5006300;28;20078;-94
2022/03/03 08:35:09;;;;;;;42.83;31.40;;;9.80;68.50;;;;;;5015628;28;20029;-95
2022/03/03 08:38:02;;;;;;;41.65;31.30;;;10.00;68.50;;;;;;5004124;28;20042;-92
2022/03/03 08:40:30;;;;;;;40.72;30.65;;;10.00;68.80;;;;;;5017834;28;20058;-93
2022/03/03 08:43:08;;;;;;;40.38;30.90;;;10.20;67.70;;;;;;5016742;28;20033;-93
2022/03/03 08:45:35;;;;;;;39.95;29.85;;;10.30;68.70;;;;;;5016379;28;20034;-92
2022/03/03 08:48:07;;;;;;;39.08;31.90;;;10.40;67.70;;;;;;5007658;28;20394;-94
2022/03/03 08:50:35;;;;;;;46.78;32.50;;;10.60;68.20;;;;;;5011817;28;20653;-94
2022/03/03 08:53:06;;;;;;;40.58;31.42;;;10.70;68.30;;;;;;5014125;28;20470;-96
2022/03/03 08:55:32;;;;;;;;;;;10.90;68.10;;;;;;5001891;28;20030;-94
2022/03/03 08:57:58;;;;;;;41.33;30.70;;;11.00;67.40;;;;;;5010677;28;19933;-94
2022/03/03 09:00:25;;;;;;;40.20;31.17;;;10.90;67.40;;;;;;5005071;28;20041;-91
2022/03/03 09:02:52;;;;;;;46.72;35.33;;;11.00;68.00;;;;;;5020701;28;20112;-94
2022/03/03 09:05:19;;;;;;;46.92;33.10;;;11.20;67.30;;;;;;5019922;28;20084;-95
2022/03/03 09:07:52;;;;;;;41.90;31.88;;;11.20;66.80;;;;;;5024536;28;20026;-96
2022/03/03 09:10:46;;;;;;;47.33;37.63;;;11.30;67.10;;;;;;5027669;28;20145;-95
2022/03/03 09:13:11;;;;;;;40.85;32.70;;;11.50;65.80;;;;;;5003145;28;20166;-94
2022/03/03 09:18:31;;;;;;;39.75;31.85;;;11.70;66.10;;;;;;5022005;23;20042;-82
2022/03/03 09:20:57;;;;;;;40.88;31.50;;;11.90;65.20;;;;;;5017596;28;20452;-83
2022/03/03 09:23:23;;;;;;;42.70;30.85;;;12.10;63.80;;;;;;5012188;28;20122;-82
2022/03/03 09:25:49;;;;;;;33.42;27.98;;;12.20;60.60;;;;;;5017641;28;20033;-82
2022/03/03 09:28:15;;;;;;;39.85;31.95;;;12.30;61.30;;;;;;5006667;28;20447;-82
2022/03/03 09:30:41;;;;;;;35.17;28.25;;;12.40;61.60;;;;;;5014790;28;20109;-82
2022/03/03 09:33:07;;;;;;;33.78;28.33;;;12.60;61.60;;;;;;5017007;28;20026;-82
2022/03/03 09:35:32;;;;;;;38.03;28.98;;;12.80;61.90;;;;;;5016150;28;20179;-80
2022/03/03 09:37:59;;;;;;;35.70;30.23;;;13.00;59.70;;;;;;5015403;28;20405;-81
2022/03/03 09:40:25;;;;;;;36.67;30.15;;;13.10;59.90;;;;;;5015927;28;20406;-81
2022/03/03 09:43:04;;;;;;;36.47;29.50;;;13.40;59.80;;;;;;5020488;28;20038;-82
2022/03/03 09:45:31;;;;;;;33.97;28.42;;;13.60;59.00;;;;;;5021584;28;20092;-82
2022/03/03 09:47:57;;;;;;;38.55;31.75;;;13.70;58.30;;;;;;5019376;28;20514;-81
2022/03/03 09:50:25;;;;;;;39.38;30.98;;;13.70;56.20;;;;;;5017612;28;20052;-81
2022/03/03 09:52:51;;;;;;;36.80;29.88;;;13.60;55.90;;;;;;5013801;28;20029;-82
2022/03/03 09:55:18;;;;;;;37.72;29.30;;;13.60;56.10;;;;;;5018524;28;20056;-81
2022/03/03 09:57:44;;;;;;;34.55;27.90;;;13.80;56.30;;;;;;5016740;28;20037;-82
2022/03/03 10:00:12;;;;;;;41.78;33.53;;;14.00;56.10;;;;;;5011454;28;20054;-82
2022/03/03 10:03:13;;;;;;;36.13;29.88;;;14.10;54.40;;;;;;5015768;28;20498;-82
2022/03/03 10:05:53;;;;;;;35.55;29.27;;;14.10;55.40;;;;;;5009521;28;20026;-82
2022/03/03 10:08:21;;;;;;;38.75;30.77;;;14.30;55.30;;;;;;5011909;28;20133;-82
2022/03/03 10:10:48;;;;;;;34.95;29.50;;;14.30;54.30;;;;;;5013180;28;20034;-81
2022/03/03 10:13:16;;;;;;;35.03;28.85;;;14.50;54.40;;;;;;5016210;28;20042;-80
2022/03/03 10:15:44;;;;;;;40.38;29.35;;;14.70;54.20;;;;;;5016794;28;20074;-82
2022/03/03 10:18:14;;;;;;;30.60;26.08;;;14.60;53.10;;;;;;5016091;28;20177;-81
2022/03/03 10:20:56;;;;;;;;;;;14.80;54.20;;;;;;5016722;28;20041;-81
2022/03/03 10:23:36;;;;;;;30.65;26.85;;;14.90;51.10;;;;;;5013470;28;20059;-81
2022/03/03 10:26:06;;;;;;;32.80;26.80;;;15.10;51.60;;;;;;5016297;28;20029;-81
2022/03/03 10:28:35;;;;;;;34.70;27.80;;;15.30;51.20;;;;;;5006972;28;20038;-81
2022/03/03 10:31:01;;;;;;;34.72;26.90;;;15.40;49.40;;;;;;5013730;28;20034;-82
2022/03/03 10:33:31;;;;;;;31.70;25.85;;;15.50;49.00;;;;;;5015282;28;20022;-82
2022/03/03 10:36:07;;;;;;;29.77;24.58;;;15.70;48.20;;;;;;5010040;28;20375;-81
2022/03/03 10:38:34;;;;;;;33.60;25.25;;;15.90;47.30;;;;;;5004519;28;20168;-81
2022/03/03 10:41:01;;;;;;;33.05;26.67;;;16.00;48.40;;;;;;5008981;28;20026;-82
2022/03/03 10:43:26;;;;;;;29.98;25.40;;;15.90;48.40;;;;;;5005747;28;20037;-82
2022/03/03 10:46:02;;;;;;;31.23;26.25;;;16.00;48.90;;;;;;5014704;28;20034;-84
2022/03/03 10:48:29;;;;;;;33.03;24.27;;;16.10;47.50;;;;;;5002554;28;20037;-82
2022/03/03 10:50:58;;;;;;;37.70;28.45;;;16.20;48.30;;;;;;5027936;28;20041;-83
2022/03/03 10:53:25;;;;;;;29.35;24.38;;;16.20;47.00;;;;;;5016180;28;20026;-84
2022/03/03 10:56:05;;;;;;;27.85;21.50;;;16.20;48.60;;;;;;5015991;28;20022;-83
2022/03/03 10:58:49;;;;;;;34.67;26.60;;;16.40;54.50;;;;;;5016337;28;20140;-84
2022/03/03 11:01:18;;;;;;;32.33;25.92;;;16.70;47.80;;;;;;5014575;28;20038;-84
2022/03/03 11:03:52;;;;;;;39.47;27.30;;;16.90;47.60;;;;;;5016420;28;20109;-86
2022/03/03 11:06:19;;;;;;;37.65;26.83;;;17.00;48.00;;;;;;5016080;28;20030;-84
2022/03/03 11:08:47;;;;;;;29.35;25.13;;;17.00;47.90;;;;;;5015553;28;20026;-85
2022/03/03 11:11:13;;;;;;;35.80;27.02;;;17.00;48.60;;;;;;5015009;28;20040;-84
2022/03/03 11:13:39;;;;;;;37.13;28.38;;;17.10;47.00;;;;;;5015936;28;20030;-83
2022/03/03 11:16:07;;;;;;;34.58;25.65;;;17.10;46.70;;;;;;5015550;28;20018;-84
2022/03/03 11:18:33;;;;;;;38.67;30.42;;;17.30;47.80;;;;;;5013976;28;20042;-83
2022/03/03 11:20:58;;;;;;;34.55;27.20;;;17.30;47.40;;;;;;5007369;28;20034;-83
2022/03/03 11:23:25;;;;;;;35.75;28.27;;;17.30;48.50;;;;;;5015254;28;20036;-82
2022/03/03 11:25:52;;;;;;;30.05;25.40;;;17.30;48.00;;;;;;5010652;28;20030;-83
2022/03/03 11:28:19;;;;;;;36.38;28.00;;;17.60;48.30;;;;;;5013213;28;20030;-83
2022/03/03 11:30:46;;;;;;;32.13;27.17;;;17.60;47.00;;;;;;5013659;28;20057;-85
2022/03/03 11:33:32;;;;;;;32.13;27.13;;;17.60;47.80;;;;;;5014630;28;20378;-84
2022/03/03 11:36:03;;;;;;;31.35;26.73;;;17.60;46.90;;;;;;5014278;28;20057;-85
2022/03/03 11:38:44;;;;;;;41.40;29.05;;;17.60;47.10;;;;;;5015158;28;20073;-83
2022/03/03 11:41:10;;;;;;;35.17;27.25;;;17.60;47.70;;;;;;4999912;28;20034;-83
2022/03/03 11:43:48;;;;;;;32.75;28.00;;;17.80;46.90;;;;;;5013140;28;20053;-83
2022/03/03 11:46:44;;;;;;;30.85;27.13;;;17.70;46.50;;;;;;5015024;28;20113;-83
2022/03/03 11:49:22;;;;;;;35.33;28.52;;;17.70;46.60;;;;;;4995690;28;20080;-82
2022/03/03 11:51:50;;;;;;;35.70;29.95;;;17.80;46.80;;;;;;5014112;28;20109;-83
2022/03/03 11:54:27;;;;;;;34.15;27.25;;;18.00;46.20;;;;;;5012439;28;20113;-82
2022/03/03 11:57:06;;;;;;;32.85;27.98;;;18.30;46.30;;;;;;5014084;28;20034;-83
2022/03/03 11:59:39;;;;;;;33.88;30.25;;;18.80;44.70;;;;;;5013420;28;20532;-83
2022/03/03 12:02:06;;;;;;;33.08;28.90;;;19.20;43.40;;;;;;4998994;28;20037;-83
2022/03/03 12:04:34;;;;;;;33.08;28.92;;;19.30;43.20;;;;;;5004720;28;20034;-82
2022/03/03 12:07:00;;;;;;;37.33;30.23;;;19.20;44.00;;;;;;5013143;28;20030;-84
2022/03/03 12:09:32;;;;;;;35.55;30.10;;;19.40;42.70;;;;;;5013709;28;20398;-83
2022/03/03 12:12:17;;;;;;;34.80;29.77;;;19.40;42.00;;;;;;5013774;28;20057;-86
2022/03/03 12:14:58;;;;;;;34.30;29.08;;;19.30;42.00;;;;;;5014947;28;20025;-85
2022/03/03 12:17:39;;;;;;;37.47;29.05;;;19.50;41.70;;;;;;5008858;28;20142;-85
2022/03/03 12:20:23;;;;;;;38.67;28.00;;;19.50;41.40;;;;;;5014649;28;20025;-86
2022/03/03 12:23:09;;;;;;;37.33;28.63;;;19.70;41.40;;;;;;5013571;28;20505;-84
2022/03/03 12:25:57;;;;;;;31.83;27.88;;;19.90;42.40;;;;;;4997796;28;20054;-85
2022/03/03 12:28:47;;;;;;;35.20;29.08;;;20.50;42.00;;;;;;5011833;28;20038;-83
2022/03/03 12:31:25;;;;;;;39.10;28.33;;;20.70;40.10;;;;;;5012639;28;20022;-85
2022/03/03 12:34:06;;;;;;;35.22;29.10;;;20.50;39.60;;;;;;5014800;28;20029;-85
2022/03/03 12:36:34;;;;;;;31.35;27.40;;;20.40;40.40;;;;;;5014128;28;20390;-83
2022/03/03 12:39:00;;;;;;;254.25;43.75;;;20.70;40.20;;;;;;5012879;28;20056;-84
2022/03/03 12:41:28;;;;;;;72.03;31.55;;;20.60;39.90;;;;;;5003057;28;20030;-85
2022/03/03 12:44:01;;;;;;;42.10;30.90;;;20.70;39.50;;;;;;5026944;28;20093;-94
2022/03/03 12:46:27;;;;;;;35.22;28.30;;;20.60;38.00;;;;;;5018485;28;20037;-92
2022/03/03 12:48:53;;;;;;;32.88;28.33;;;20.10;38.90;;;;;;5017564;28;20394;-92
2022/03/03 12:51:18;;;;;;;41.60;31.10;;;19.90;39.30;;;;;;5018583;28;20018;-85